Time;durP1;ratioP1;P1;durP2;ratioP2;P2;SDS_P1;SDS_P2;PMS_P1;PMS_P2;Temp;Humidity;BMP_temperature;BMP_pressure;BME280_temperature;BME280_humidity;BME280_pressure;Samples;Min_cycle;Max_cycle;Signal;HPM_P1;HPM_P2
2022/02/10 00:04:04;;;;;;;13.63;8.77;;;3.90;28.40;;;;;;7362900;19;20007;-60
2022/02/10 00:15:10;;;;;;;18.13;9.50;;;3.50;32.20;;;;;;7359468;19;20002;-60
2022/02/10 00:17:45;;;;;;;13.65;8.60;;;3.50;32.60;;;;;;7366300;19;20073;-59
2022/02/10 00:20:23;;;;;;;13.40;8.50;;;3.50;32.60;;;;;;7368131;19;20010;-60
2022/02/10 00:23:17;;;;;;;14.40;8.80;;;3.60;32.20;;;;;;7364496;19;20452;-60
2022/02/10 00:34:24;;;;;;;14.40;9.43;;;3.70;27.50;;;;;;7361467;19;20086;-59
2022/02/10 00:37:10;;;;;;;13.80;8.55;;;3.80;27.30;;;;;;7384918;19;20022;-59
2022/02/10 00:42:23;;;;;;;15.38;8.15;;;3.70;26.50;;;;;;7367629;19;20032;-59
2022/02/10 00:44:53;;;;;;;14.63;8.52;;;3.70;26.30;;;;;;7361067;19;20018;-59
2022/02/10 00:47:28;;;;;;;12.57;8.10;;;3.70;26.10;;;;;;7366768;19;20094;-59
2022/02/10 00:50:02;;;;;;;14.63;8.65;;;3.80;24.80;;;;;;7365866;19;20088;-59
2022/02/10 00:52:32;;;;;;;12.88;8.52;;;3.80;24.30;;;;;;7363096;19;20398;-59
2022/02/10 00:55:02;;;;;;;13.55;8.40;;;3.80;23.50;;;;;;7362499;19;20018;-60
2022/02/10 00:57:32;;;;;;;14.32;9.05;;;3.80;23.70;;;;;;7386563;19;20027;-59
2022/02/10 01:00:21;;;;;;;15.65;8.50;;;3.80;23.60;;;;;;7367287;19;20180;-59
2022/02/10 01:12:02;;;;;;;12.90;7.63;;;3.80;20.70;;;;;;7367361;19;20035;-60
2022/02/10 01:30:57;;;;;;;14.02;8.85;;;3.70;19.90;;;;;;7389563;19;20031;-60
2022/02/10 01:33:29;;;;;;;14.93;8.93;;;3.60;20.60;;;;;;7356128;19;20015;-60
2022/02/10 01:36:02;;;;;;;15.80;8.10;;;3.60;20.40;;;;;;7363583;19;20047;-59
2022/02/10 01:38:32;;;;;;;13.80;8.27;;;3.60;20.50;;;;;;7365387;19;20348;-60
2022/02/10 02:05:35;;;;;;;15.50;8.57;;;3.30;21.50;;;;;;7362920;19;20404;-61
2022/02/10 02:08:09;;;;;;;13.18;8.13;;;3.20;22.10;;;;;;7365353;19;20385;-60
2022/02/10 02:10:39;;;;;;;15.32;8.45;;;3.10;22.40;;;;;;7363313;19;20126;-60
2022/02/10 02:13:09;;;;;;;15.13;9.18;;;3.10;22.60;;;;;;7358311;19;20018;-60
2022/02/10 02:15:39;;;;;;;14.07;8.55;;;3.10;23.00;;;;;;7386606;19;20003;-59
2022/02/10 02:18:09;;;;;;;12.63;8.35;;;3.10;22.60;;;;;;7360727;19;20816;-59
2022/02/10 02:20:39;;;;;;;13.85;8.70;;;3.00;22.20;;;;;;7365306;19;20014;-58
2022/02/10 02:23:11;;;;;;;17.80;10.60;;;3.00;22.00;;;;;;7356978;19;20473;-58
2022/02/10 02:25:41;;;;;;;17.30;9.25;;;3.10;21.90;;;;;;7363024;19;20021;-58
2022/02/10 02:28:13;;;;;;;16.27;9.27;;;3.00;21.80;;;;;;7363037;19;20014;-58
2022/02/10 02:30:48;;;;;;;14.90;9.13;;;3.00;21.70;;;;;;7386498;19;20034;-58
2022/02/10 02:36:40;;;;;;;15.77;8.50;;;3.00;21.10;;;;;;7368619;19;20086;-59
2022/02/10 03:06:27;;;;;;;12.88;7.30;;;3.10;18.40;;;;;;7366801;19;20027;-59
2022/02/10 03:09:01;;;;;;;15.52;8.13;;;3.10;17.70;;;;;;7366959;19;20010;-59
2022/02/10 03:11:35;;;;;;;13.60;7.50;;;2.90;17.70;;;;;;7369756;19;20098;-59
2022/02/10 03:14:09;;;;;;;12.73;7.80;;;2.80;19.10;;;;;;7360775;19;20086;-59
2022/02/10 03:17:04;;;;;;;13.25;7.90;;;2.70;20.50;;;;;;7367073;19;20372;-59
2022/02/10 03:19:53;;;;;;;14.88;8.18;;;2.60;20.80;;;;;;7367220;19;20014;-59
2022/02/10 03:22:41;;;;;;;11.23;7.57;;;2.50;22.30;;;;;;7369029;19;20086;-59
2022/02/10 04:06:25;;;;;;;12.93;7.43;;;2.00;24.50;;;;;;7364622;19;20065;-59
2022/02/10 04:09:35;;;;;;;12.40;8.00;;;1.90;25.30;;;;;;7366717;19;20479;-58
2022/02/10 04:12:31;;;;;;;12.60;8.15;;;1.90;26.20;;;;;;7368239;19;20014;-60
2022/02/10 04:15:09;;;;;;;14.20;8.68;;;1.80;26.60;;;;;;7361423;19;20011;-60
2022/02/10 04:18:02;;;;;;;15.63;8.13;;;1.80;27.70;;;;;;7365062;19;20014;-60
2022/02/10 04:20:48;;;;;;;15.10;9.32;;;1.80;28.40;;;;;;7367727;19;20077;-60
2022/02/10 04:23:31;;;;;;;14.23;8.43;;;1.80;28.60;;;;;;7361161;19;20017;-59
2022/02/10 04:26:13;;;;;;;14.32;8.40;;;1.80;28.70;;;;;;7366436;19;20934;-59
2022/02/10 04:29:00;;;;;;;14.80;8.20;;;1.70;28.00;;;;;;7366781;19;20010;-59
2022/02/10 04:37:46;;;;;;;13.68;8.27;;;2.10;26.50;;;;;;7363792;19;20010;-60
2022/02/10 04:54:34;;;;;;;;;;;2.40;20.60;;;;;;7360831;19;20471;-59
2022/02/10 05:24:50;;;;;;;11.95;5.95;;;2.80;14.70;;;;;;7356029;19;20010;-59
2022/02/10 05:33:02;;;;;;;17.77;6.63;;;3.10;12.80;;;;;;7364785;19;20423;-59
2022/02/10 05:35:35;;;;;;;10.85;6.00;;;3.20;11.40;;;;;;7364484;19;20106;-59
2022/02/10 05:38:09;;;;;;;9.07;5.40;;;3.20;11.40;;;;;;7363781;19;20027;-59
2022/02/10 05:43:43;;;;;;;8.77;5.88;;;3.30;9.90;;;;;;7356641;19;20043;-59
2022/02/10 05:46:18;;;;;;;10.70;6.05;;;3.20;10.90;;;;;;7366723;19;20563;-59
2022/02/10 05:49:09;;;;;;;9.93;5.50;;;3.20;10.90;;;;;;7384686;19;20002;-60
2022/02/10 05:52:14;;;;;;;12.10;5.18;;;3.30;10.20;;;;;;7363493;19;20547;-61
2022/02/10 05:54:54;;;;;;;7.93;5.22;;;3.30;11.20;;;;;;7357621;19;20016;-59
2022/02/10 05:57:42;;;;;;;10.68;5.03;;;3.30;10.80;;;;;;7366170;19;20023;-60
2022/02/10 06:01:18;;;;;;;11.40;5.38;;;3.20;10.80;;;;;;7363300;19;20070;-59
2022/02/10 06:52:41;;;;;;;13.27;5.07;;;3.70;7.90;;;;;;7359173;19;20021;-59
2022/02/10 06:55:24;;;;;;;15.43;5.43;;;3.70;7.30;;;;;;7354962;19;20098;-58
2022/02/10 06:58:18;;;;;;;7.47;4.65;;;3.70;7.60;;;;;;7385626;19;20071;-59
2022/02/10 07:06:28;;;;;;;9.57;4.57;;;3.90;6.50;;;;;;7362257;19;20018;-58
2022/02/10 07:09:17;;;;;;;11.23;5.00;;;3.90;6.40;;;;;;7361640;19;20076;-60
2022/02/10 07:43:16;;;;;;;7.63;4.18;;;4.00;6.40;;;;;;7360738;19;20617;-59
2022/02/10 07:47:52;;;;;;;8.20;5.13;;;4.70;4.90;;;;;;7368427;19;20015;-60
2022/02/10 07:50:46;;;;;;;10.90;5.30;;;4.70;4.60;;;;;;7369828;19;19999;-59
2022/02/10 07:53:48;;;;;;;12.55;4.85;;;4.70;4.60;;;;;;7363192;19;20078;-59
2022/02/10 07:59:32;;;;;;;4.38;3.13;;;5.20;3.50;;;;;;7366733;19;20070;-59
2022/02/10 08:57:20;;;;;;;6.18;3.40;;;8.30;1.00;;;;;;7363011;19;19915;-58
2022/02/10 09:00:17;;;;;;;6.50;3.60;;;8.40;1.00;;;;;;7363269;19;20018;-58
2022/02/10 09:05:39;;;;;;;9.07;3.63;;;8.70;1.00;;;;;;7362565;19;20135;-60
2022/02/10 09:08:53;;;;;;;10.20;4.07;;;8.80;1.00;;;;;;7363380;19;20493;-60
2022/02/10 09:14:18;;;;;;;5.25;2.88;;;9.00;1.00;;;;;;7358921;19;20011;-58
2022/02/10 09:58:29;;;;;;;8.85;3.70;;;9.70;1.00;;;;;;7361361;19;20471;-60
2022/02/10 10:01:19;;;;;;;7.55;4.38;;;9.60;1.00;;;;;;7369538;19;20007;-60
2022/02/10 10:04:06;;;;;;;8.88;4.72;;;9.80;1.00;;;;;;7379541;19;20007;-60
2022/02/10 10:06:56;;;;;;;7.80;4.28;;;9.90;1.00;;;;;;7365470;19;20010;-59
2022/02/10 10:09:43;;;;;;;8.05;4.72;;;10.00;1.00;;;;;;7361641;19;20010;-59
2022/02/10 10:12:43;;;;;;;12.38;4.60;;;10.10;1.00;;;;;;7360713;19;20371;-60
2022/02/10 10:15:23;;;;;;;8.65;4.55;;;9.90;1.00;;;;;;7353839;19;20031;-60
2022/02/10 10:57:57;;;;;;;8.75;4.97;;;10.00;1.00;;;;;;7387070;19;20521;-59
2022/02/10 11:00:44;;;;;;;7.20;4.75;;;9.80;1.00;;;;;;7369151;19;20011;-58
2022/02/10 11:36:51;;;;;;;11.38;5.68;;;9.50;1.00;;;;;;7368963;19;20091;-59
2022/02/10 11:42:39;;;;;;;10.07;5.88;;;9.50;1.00;;;;;;7365663;19;20380;-59
2022/02/10 12:01:20;;;;;;;14.38;7.63;;;9.20;1.00;;;;;;7365999;19;20428;-59
2022/02/10 14:10:49;;;;;;;15.35;6.65;;;7.60;3.30;;;;;;7361656;19;20073;-59
2022/02/10 14:13:26;;;;;;;10.10;6.35;;;7.60;3.80;;;;;;7361740;19;20044;-59
2022/02/10 14:16:12;;;;;;;11.82;6.68;;;7.70;3.30;;;;;;7376958;19;20018;-61
2022/02/10 14:18:51;;;;;;;11.23;6.45;;;7.70;2.90;;;;;;7361519;19;20477;-60
2022/02/10 14:21:29;;;;;;;12.55;7.15;;;7.60;3.30;;;;;;7360733;19;20109;-62
2022/02/10 14:26:48;;;;;;;12.55;6.72;;;7.50;3.30;;;;;;7361702;19;20018;-59
2022/02/10 14:29:18;;;;;;;11.35;6.93;;;7.50;3.60;;;;;;7360323;19;20013;-60
2022/02/10 14:31:52;;;;;;;13.90;7.72;;;7.30;4.10;;;;;;7362422;19;20027;-60
2022/02/10 14:34:27;;;;;;;;;;;7.30;4.20;;;;;;7356256;19;20095;-59
2022/02/10 14:37:16;;;;;;;11.43;6.95;;;7.30;4.10;;;;;;7385201;19;19919;-59
2022/02/10 14:40:17;;;;;;;11.70;6.82;;;7.30;4.30;;;;;;7257890;19;2004440;-62
2022/02/10 15:10:42;;;;;;;11.10;6.82;;;7.40;4.90;;;;;;7359669;19;20014;-60
2022/02/10 15:12:02;;;;;;;12.50;7.15;;;7.20;4.70;;;;;;7363275;19;20011;-57
2022/02/10 15:45:51;;;;;;;16.23;7.47;;;7.20;4.10;;;;;;7355319;19;20002;-58
2022/02/10 16:17:41;;;;;;;12.13;6.78;;;7.30;2.50;;;;;;7362329;19;20468;-59
2022/02/10 16:20:18;;;;;;;13.32;5.78;;;7.20;3.00;;;;;;7365784;19;20006;-59
2022/02/10 16:23:00;;;;;;;11.82;6.00;;;7.20;2.00;;;;;;7365334;19;20011;-62
2022/02/10 16:25:33;;;;;;;11.25;5.50;;;7.20;1.60;;;;;;7359574;19;20570;-60
2022/02/10 16:28:29;;;;;;;9.35;5.55;;;7.30;1.20;;;;;;7364655;19;20017;-59
2022/02/10 16:31:01;;;;;;;8.38;5.10;;;7.30;1.00;;;;;;7380048;19;20028;-61
2022/02/10 16:33:52;;;;;;;8.35;5.20;;;7.40;1.00;;;;;;7388929;19;20014;-60
2022/02/10 16:36:42;;;;;;;6.00;4.20;;;7.40;1.00;;;;;;7362545;19;20035;-60
2022/02/10 16:39:32;;;;;;;5.47;3.80;;;7.40;1.00;;;;;;7357977;19;20006;-60
2022/02/10 16:42:22;;;;;;;10.45;4.63;;;7.40;1.00;;;;;;7363103;19;20074;-60
2022/02/10 16:45:12;;;;;;;9.77;5.03;;;7.40;1.00;;;;;;7358367;19;20007;-58
2022/02/10 16:48:05;;;;;;;9.05;4.43;;;7.40;1.00;;;;;;7365598;19;20382;-58
2022/02/10 16:50:55;;;;;;;8.07;4.78;;;7.40;1.00;;;;;;7362356;19;20025;-61
2022/02/10 16:53:26;;;;;;;7.72;4.68;;;7.40;1.00;;;;;;7363525;19;20003;-60
2022/02/10 16:56:21;;;;;;;8.52;4.25;;;7.40;1.00;;;;;;7361788;19;20014;-61
2022/02/10 16:59:26;;;;;;;8.27;4.57;;;7.40;1.00;;;;;;7362148;19;20106;-60
2022/02/10 17:02:44;;;;;;;7.03;4.10;;;7.40;1.00;;;;;;7363579;19;20315;-61
2022/02/10 17:20:48;;;;;;;;;;;7.10;1.00;;;;;;7362374;19;20011;-59
2022/02/10 17:26:32;;;;;;;9.20;4.63;;;7.20;1.00;;;;;;7356789;19;20022;-59
2022/02/10 17:29:11;;;;;;;11.13;5.10;;;7.10;1.00;;;;;;7361465;19;20023;-59
2022/02/10 17:31:52;;;;;;;6.93;4.72;;;7.10;1.00;;;;;;7363466;19;20085;-60
2022/02/10 17:34:39;;;;;;;7.45;5.05;;;6.90;1.00;;;;;;7358036;19;20035;-61
2022/02/10 17:37:28;;;;;;;8.23;5.75;;;6.90;1.00;;;;;;7366030;19;20018;-58
2022/02/10 17:45:51;;;;;;;12.63;8.88;;;6.90;1.00;;;;;;7353457;19;20016;-60
2022/02/10 17:53:59;;;;;;;19.02;9.00;;;6.80;1.00;;;;;;7359586;19;20189;-60
2022/02/10 17:56:30;;;;;;;10.82;6.50;;;6.80;1.00;;;;;;7361886;19;20458;-59
2022/02/10 17:59:00;;;;;;;7.28;4.78;;;6.80;1.00;;;;;;7362432;19;20014;-60
2022/02/10 18:01:31;;;;;;;13.18;5.40;;;6.90;1.00;;;;;;7363858;19;20006;-60
2022/02/10 18:04:01;;;;;;;13.80;6.38;;;6.90;1.00;;;;;;7356122;19;20036;-61
2022/02/10 18:06:34;;;;;;;9.07;5.22;;;7.00;1.00;;;;;;7381959;19;20095;-61
2022/02/10 18:14:49;;;;;;;10.85;5.00;;;7.00;1.00;;;;;;7357100;19;20044;-59
2022/02/10 18:17:42;;;;;;;6.72;3.83;;;7.00;1.00;;;;;;7363932;19;20007;-60
2022/02/10 18:20:17;;;;;;;7.83;3.57;;;7.00;1.00;;;;;;7359728;19;20451;-59
2022/02/10 18:25:46;;;;;;;7.25;3.47;;;7.10;1.00;;;;;;7355036;19;20146;-59
2022/02/10 18:28:51;;;;;;;8.15;4.03;;;7.10;1.00;;;;;;7359799;19;20074;-60
2022/02/10 19:07:01;;;;;;;6.07;3.15;;;6.80;1.00;;;;;;7380572;19;20011;-60
2022/02/10 19:09:35;;;;;;;8.45;3.58;;;6.80;1.00;;;;;;7359856;19;20027;-59
2022/02/10 19:12:15;;;;;;;4.47;3.08;;;6.90;1.00;;;;;;7362602;19;20074;-60
2022/02/10 19:14:53;;;;;;;5.53;3.55;;;6.90;1.00;;;;;;7356782;19;20082;-60
2022/02/10 19:17:23;;;;;;;5.43;3.10;;;6.80;1.00;;;;;;7367628;19;20077;-60
2022/02/10 19:19:53;;;;;;;5.28;3.65;;;6.80;1.00;;;;;;7361364;19;20011;-59
2022/02/10 19:22:23;;;;;;;5.60;3.60;;;6.80;1.00;;;;;;7359968;19;20014;-60
2022/02/10 19:24:54;;;;;;;4.63;3.25;;;6.70;1.00;;;;;;7369911;19;20018;-60
2022/02/10 19:27:24;;;;;;;5.30;3.40;;;6.70;1.00;;;;;;7358408;19;20035;-59
2022/02/10 19:29:58;;;;;;;5.68;3.42;;;6.60;1.00;;;;;;7357334;19;20007;-60
2022/02/10 19:32:31;;;;;;;8.10;4.38;;;6.50;1.00;;;;;;7366691;19;20002;-58
2022/02/10 19:35:02;;;;;;;7.97;4.75;;;6.50;1.00;;;;;;7360676;19;20092;-60
2022/02/10 19:37:33;;;;;;;5.90;3.95;;;6.40;1.00;;;;;;7369470;19;20011;-60
2022/02/10 19:40:04;;;;;;;9.15;4.97;;;6.30;1.00;;;;;;7363831;19;20414;-59
2022/02/10 19:42:36;;;;;;;10.07;5.93;;;6.30;1.00;;;;;;7387359;19;20025;-59
2022/02/10 19:45:10;;;;;;;10.45;6.35;;;6.20;1.00;;;;;;7360905;19;20466;-59
2022/02/10 19:47:41;;;;;;;9.95;6.10;;;6.10;1.00;;;;;;7364760;19;20015;-59
2022/02/10 19:50:15;;;;;;;9.43;5.25;;;6.00;1.00;;;;;;7365974;19;20026;-59
2022/02/10 19:52:49;;;;;;;7.30;4.30;;;5.90;1.00;;;;;;7367797;19;20078;-59
2022/02/10 19:55:22;;;;;;;6.35;4.47;;;5.90;1.00;;;;;;7354701;19;20020;-59
2022/02/10 19:58:01;;;;;;;10.30;4.45;;;6.00;1.00;;;;;;7387218;19;20011;-60
2022/02/10 20:00:38;;;;;;;7.20;4.10;;;6.10;1.00;;;;;;7363808;19;20090;-59
2022/02/10 20:03:13;;;;;;;5.97;3.95;;;6.10;1.00;;;;;;7360767;19;20046;-60
2022/02/10 20:05:50;;;;;;;6.53;4.00;;;6.20;1.00;;;;;;7357352;19;20022;-59
2022/02/10 20:08:22;;;;;;;7.20;3.92;;;6.30;1.00;;;;;;7365050;19;20006;-59
2022/02/10 20:10:54;;;;;;;6.35;3.97;;;6.40;1.00;;;;;;7363154;19;20696;-60
2022/02/10 20:13:26;;;;;;;6.00;4.20;;;6.40;1.00;;;;;;7365774;19;20479;-60
2022/02/10 20:16:02;;;;;;;9.40;5.05;;;6.40;1.00;;;;;;7381909;19;20036;-60
2022/02/10 20:18:31;;;;;;;8.52;4.40;;;6.30;1.00;;;;;;7365523;19;20019;-60
2022/02/10 20:21:03;;;;;;;8.48;5.07;;;6.20;1.00;;;;;;7364799;19;20024;-60
2022/02/10 20:23:34;;;;;;;7.10;4.55;;;6.20;1.00;;;;;;7367822;19;20035;-60
2022/02/10 20:26:12;;;;;;;7.78;4.63;;;6.20;1.00;;;;;;7358248;19;20009;-60
2022/02/10 20:28:43;;;;;;;6.78;4.57;;;6.20;1.00;;;;;;7365406;19;20031;-60
2022/02/10 20:31:16;;;;;;;5.80;4.07;;;6.30;1.00;;;;;;7368360;19;20002;-60
2022/02/10 20:33:46;;;;;;;7.30;4.45;;;6.30;1.00;;;;;;7387402;19;20046;-60
2022/02/10 20:36:17;;;;;;;7.60;4.15;;;6.20;1.00;;;;;;7358710;19;20378;-60
2022/02/10 20:38:54;;;;;;;8.60;4.72;;;6.30;1.00;;;;;;7366201;19;20068;-61
2022/02/10 20:41:29;;;;;;;9.45;4.45;;;6.40;1.00;;;;;;7364865;19;20026;-60
2022/02/10 20:44:01;;;;;;;7.53;4.22;;;6.40;1.00;;;;;;7362602;19;20014;-60
2022/02/10 20:46:40;;;;;;;13.52;4.88;;;6.40;1.00;;;;;;7359877;19;20010;-60
2022/02/10 20:49:16;;;;;;;5.78;4.10;;;6.40;1.00;;;;;;7366099;19;20506;-60
2022/02/10 20:51:47;;;;;;;9.43;4.35;;;6.40;1.00;;;;;;7388394;19;20010;-60
2022/02/10 20:54:18;;;;;;;9.23;4.78;;;6.50;1.00;;;;;;7359176;19;20034;-59
2022/02/10 20:56:48;;;;;;;7.03;4.53;;;6.50;1.00;;;;;;7364230;19;20013;-60
2022/02/10 20:59:27;;;;;;;7.13;4.45;;;6.40;1.00;;;;;;7366213;19;20392;-60
2022/02/10 21:02:06;;;;;;;6.10;3.95;;;6.40;1.00;;;;;;7364988;19;20014;-60
2022/02/10 21:04:41;;;;;;;8.25;4.50;;;6.40;1.00;;;;;;7357040;19;20106;-60
2022/02/10 21:07:16;;;;;;;8.13;4.18;;;6.40;1.00;;;;;;7367965;19;20014;-61
2022/02/10 21:09:52;;;;;;;7.88;3.78;;;6.50;1.00;;;;;;7384320;19;20021;-60
2022/02/10 21:12:22;;;;;;;6.10;3.35;;;6.50;1.00;;;;;;7365341;19;20019;-60
2022/02/10 21:14:52;;;;;;;6.60;3.75;;;6.50;1.00;;;;;;7358845;19;20009;-60
2022/02/10 21:17:27;;;;;;;5.40;3.70;;;6.50;1.00;;;;;;7363779;19;21537;-60
2022/02/10 21:20:02;;;;;;;7.40;3.97;;;6.50;1.00;;;;;;7363758;19;20003;-60
2022/02/10 21:22:37;;;;;;;6.00;3.67;;;6.50;1.00;;;;;;7367691;19;20026;-60
2022/02/10 21:25:12;;;;;;;5.65;3.95;;;6.60;1.00;;;;;;7355261;19;19999;-61
2022/02/10 21:27:45;;;;;;;6.18;3.78;;;6.60;1.00;;;;;;7385400;19;20018;-61
2022/02/10 21:30:17;;;;;;;7.50;4.15;;;6.60;1.00;;;;;;7365911;19;20718;-61
2022/02/10 21:32:54;;;;;;;6.60;3.90;;;6.60;1.00;;;;;;7364979;19;20019;-61
2022/02/10 21:35:32;;;;;;;7.90;4.15;;;6.60;1.00;;;;;;7355677;19;20043;-60
2022/02/10 21:38:15;;;;;;;9.73;5.00;;;6.60;1.00;;;;;;7364435;19;20494;-61
2022/02/10 21:41:18;;;;;;;10.55;5.53;;;6.60;1.00;;;;;;7364306;19;20357;-60
2022/02/10 21:55:30;;;;;;;8.02;4.32;;;6.60;1.40;;;;;;7353402;19;19922;-61
2022/02/10 22:07:00;;;;;;;6.82;4.95;;;6.70;1.00;;;;;;7356682;19;20015;-59
2022/02/10 22:09:35;;;;;;;8.52;5.00;;;6.70;1.00;;;;;;7361866;19;20446;-60
2022/02/10 22:16:25;;;;;;;5.82;4.80;;;6.70;1.10;;;;;;7364533;19;20018;-60
2022/02/10 22:18:31;;;;;;;7.55;5.32;;;6.60;1.00;;;;;;7362282;19;20082;-60
2022/02/10 22:21:02;;;;;;;8.25;5.20;;;6.60;1.00;;;;;;7361136;19;20462;-59
2022/02/10 22:23:41;;;;;;;7.20;5.28;;;6.70;1.00;;;;;;7364223;19;20027;-60
2022/02/10 22:26:18;;;;;;;8.20;5.10;;;6.70;1.10;;;;;;7355786;19;21449;-61
2022/02/10 22:28:54;;;;;;;7.50;4.78;;;6.70;1.50;;;;;;7363082;19;20023;-60
2022/02/10 22:31:33;;;;;;;6.28;4.63;;;6.70;1.00;;;;;;7362770;19;20010;-59
2022/02/10 22:34:22;;;;;;;7.93;4.85;;;6.70;1.70;;;;;;7362895;19;20015;-61
2022/02/10 22:36:57;;;;;;;7.05;4.65;;;6.70;1.90;;;;;;7383381;19;20027;-61
2022/02/10 22:39:34;;;;;;;7.70;4.88;;;6.70;1.50;;;;;;7361665;19;20088;-61
2022/02/10 22:42:05;;;;;;;6.25;4.53;;;6.70;1.30;;;;;;7363280;19;20090;-61
2022/02/10 22:44:36;;;;;;;8.52;4.93;;;6.80;1.20;;;;;;7354502;19;20459;-61
2022/02/10 22:47:09;;;;;;;6.88;4.72;;;6.70;2.10;;;;;;7363003;19;20104;-61
2022/02/10 22:49:39;;;;;;;7.18;4.47;;;6.70;2.70;;;;;;7364443;19;20014;-60
2022/02/10 22:52:13;;;;;;;9.65;4.75;;;6.70;2.20;;;;;;7367692;19;20082;-60
2022/02/10 22:54:45;;;;;;;7.57;4.38;;;6.80;1.20;;;;;;7383862;19;20081;-60
2022/02/10 22:57:15;;;;;;;7.22;4.55;;;6.80;1.00;;;;;;7371504;19;20546;-60
2022/02/10 22:59:45;;;;;;;6.15;4.40;;;6.80;1.20;;;;;;7370281;19;20002;-59
2022/02/10 23:02:15;;;;;;;8.00;4.80;;;6.80;1.30;;;;;;7367950;19;20097;-60
2022/02/10 23:04:45;;;;;;;7.30;4.55;;;6.80;1.10;;;;;;7363560;19;20090;-59
2022/02/10 23:07:15;;;;;;;7.85;5.40;;;6.80;1.00;;;;;;7367648;19;20081;-59
2022/02/10 23:09:53;;;;;;;9.35;4.85;;;6.80;1.30;;;;;;7384056;19;20398;-60
2022/02/10 23:12:23;;;;;;;7.90;4.45;;;6.80;1.50;;;;;;7367232;19;20014;-60
2022/02/10 23:14:53;;;;;;;7.03;4.47;;;6.80;1.90;;;;;;7358495;19;20098;-60
2022/02/10 23:17:23;;;;;;;9.10;5.00;;;6.70;1.70;;;;;;7363933;19;20015;-61
2022/02/10 23:19:53;;;;;;;7.63;4.60;;;6.70;2.20;;;;;;7366533;19;20014;-60
2022/02/10 23:22:23;;;;;;;7.72;4.90;;;6.70;2.10;;;;;;7366632;19;20031;-61
2022/02/10 23:24:55;;;;;;;7.75;5.20;;;6.70;1.80;;;;;;7379174;19;20027;-61
2022/02/10 23:27:25;;;;;;;10.05;4.65;;;6.70;1.60;;;;;;7369003;19;20358;-61
2022/02/10 23:29:55;;;;;;;7.97;4.53;;;6.70;1.70;;;;;;7365282;19;20098;-61
2022/02/10 23:32:25;;;;;;;8.70;5.00;;;6.70;1.90;;;;;;7365222;19;20003;-61
2022/02/10 23:34:55;;;;;;;7.30;4.65;;;6.70;1.50;;;;;;7360736;19;20010;-61
2022/02/10 23:37:27;;;;;;;9.90;4.50;;;6.90;1.00;;;;;;7366750;19;20015;-61
2022/02/10 23:40:00;;;;;;;7.95;5.13;;;6.80;1.00;;;;;;7386514;19;20140;-61
2022/02/10 23:42:32;;;;;;;6.72;4.70;;;6.80;1.00;;;;;;7367544;19;20385;-61
2022/02/10 23:45:12;;;;;;;6.32;3.95;;;6.90;1.00;;;;;;7356075;19;20082;-60
2022/02/10 23:47:45;;;;;;;7.00;4.68;;;6.90;1.00;;;;;;7364688;19;20033;-61
2022/02/10 23:50:18;;;;;;;6.78;4.40;;;6.90;1.00;;;;;;7367766;19;20017;-60
2022/02/10 23:52:52;;;;;;;9.52;4.90;;;6.90;1.00;;;;;;7367912;19;20010;-60
2022/02/10 23:55:31;;;;;;;7.30;4.68;;;6.90;1.00;;;;;;7358114;19;20861;-60
2022/02/10 23:58:12;;;;;;;7.15;4.60;;;6.80;1.00;;;;;;7365072;19;20022;-61
